Time;durP1;ratioP1;P1;durP2;ratioP2;P2;SDS_P1;SDS_P2;PMS_P1;PMS_P2;Temp;Humidity;BMP_temperature;BMP_pressure;BME280_temperature;BME280_humidity;BME280_pressure;Samples;Min_cycle;Max_cycle;Signal;HPM_P1;HPM_P2
2021/07/18 00:02:04;;;;;;;12.17;5.40;;;21.80;1.00;;;;;;5128479;27;20543;-55
2021/07/18 00:04:29;;;;;;;19.33;6.47;;;21.70;1.00;;;;;;5127840;27;20301;-56
2021/07/18 00:06:55;;;;;;;5.73;5.13;;;21.60;1.00;;;;;;5126418;27;20189;-56
2021/07/18 00:09:21;;;;;;;7.53;5.50;;;21.70;1.00;;;;;;5125516;27;20194;-57
2021/07/18 00:11:46;;;;;;;5.77;5.27;;;21.60;1.00;;;;;;5125332;27;20599;-56
2021/07/18 00:14:12;;;;;;;7.17;5.33;;;21.50;1.00;;;;;;5129825;27;20548;-55
2021/07/18 00:16:38;;;;;;;9.87;5.97;;;21.40;1.00;;;;;;5130541;27;20181;-56
2021/07/18 00:19:05;;;;;;;10.40;5.00;;;21.40;1.00;;;;;;5127494;27;20222;-56
2021/07/18 00:21:30;;;;;;;10.47;5.67;;;21.30;1.00;;;;;;5131765;27;20176;-56
2021/07/18 00:23:57;;;;;;;7.47;4.93;;;21.40;1.00;;;;;;5130524;27;20962;-55
2021/07/18 00:26:22;;;;;;;10.57;5.27;;;21.30;1.00;;;;;;5129883;27;20610;-55
2021/07/18 00:28:48;;;;;;;9.00;5.10;;;21.20;1.00;;;;;;5132090;27;20526;-56
2021/07/18 00:31:13;;;;;;;9.63;6.13;;;21.20;1.00;;;;;;5129179;27;20186;-55
2021/07/18 00:33:39;;;;;;;8.43;5.10;;;21.10;1.00;;;;;;5130244;27;20678;-56
2021/07/18 00:36:05;;;;;;;11.87;6.00;;;21.00;1.00;;;;;;5130660;27;20237;-56
2021/07/18 00:38:30;;;;;;;8.37;4.77;;;20.90;1.00;;;;;;5126303;27;20187;-55
2021/07/18 00:40:56;;;;;;;12.70;5.60;;;21.00;1.00;;;;;;5124568;27;20188;-54
2021/07/18 00:43:21;;;;;;;7.93;4.30;;;20.90;1.00;;;;;;5131992;27;20193;-55
2021/07/18 00:45:47;;;;;;;5.77;4.50;;;20.80;1.00;;;;;;5109345;27;20177;-57
2021/07/18 00:48:12;;;;;;;6.43;4.70;;;20.90;1.00;;;;;;5131338;27;20542;-55
2021/07/18 00:50:43;;;;;;;5.77;5.27;;;21.00;1.00;;;;;;5127404;27;20226;-55
2021/07/18 00:53:11;;;;;;;6.47;4.03;;;22.90;1.00;;;;;;5131129;27;20777;-56
2021/07/18 00:55:40;;;;;;;7.90;4.53;;;21.00;1.00;;;;;;5128222;27;21031;-55
2021/07/18 00:58:06;;;;;;;9.83;4.70;;;21.00;1.00;;;;;;5129824;27;20433;-56
2021/07/18 01:00:32;;;;;;;9.63;4.40;;;20.90;1.00;;;;;;5130392;27;20478;-55
2021/07/18 01:02:58;;;;;;;5.87;3.40;;;21.00;1.00;;;;;;5127432;27;20449;-55
2021/07/18 01:05:24;;;;;;;5.20;3.83;;;21.00;1.00;;;;;;5129901;27;20215;-56
2021/07/18 01:07:51;;;;;;;13.60;5.03;;;21.10;1.00;;;;;;5125026;27;20451;-55
2021/07/18 01:10:16;;;;;;;5.70;4.20;;;21.30;1.00;;;;;;5130909;27;20267;-55
2021/07/18 01:12:42;;;;;;;6.90;4.00;;;21.20;1.00;;;;;;5127595;27;20872;-56
2021/07/18 01:15:08;;;;;;;8.70;4.40;;;21.20;1.00;;;;;;5131130;27;20204;-56
2021/07/18 01:17:36;;;;;;;8.40;4.80;;;21.30;1.00;;;;;;5130362;27;20642;-56
2021/07/18 01:20:04;;;;;;;11.10;5.23;;;21.20;1.00;;;;;;5130366;27;20874;-56
2021/07/18 01:22:30;;;;;;;7.57;3.93;;;21.20;1.00;;;;;;5129261;27;20427;-56
2021/07/18 01:24:56;;;;;;;6.07;4.70;;;21.10;1.00;;;;;;5125626;27;20768;-56
2021/07/18 01:27:22;;;;;;;9.30;4.77;;;21.20;1.00;;;;;;5129844;27;20405;-56
2021/07/18 01:29:48;;;;;;;6.30;3.87;;;21.20;1.00;;;;;;5130099;27;20435;-55
2021/07/18 01:32:13;;;;;;;6.57;4.20;;;21.30;1.00;;;;;;5130780;27;20524;-55
2021/07/18 01:34:39;;;;;;;7.63;4.10;;;21.20;1.00;;;;;;5126264;27;20268;-55
2021/07/18 01:37:04;;;;;;;11.70;4.27;;;21.30;1.00;;;;;;5132159;27;20276;-56
2021/07/18 01:39:30;;;;;;;9.97;4.60;;;21.20;1.00;;;;;;5133330;27;20282;-54
2021/07/18 01:41:57;;;;;;;6.50;3.73;;;21.10;1.00;;;;;;5135782;27;20702;-56
2021/07/18 01:44:23;;;;;;;10.53;4.80;;;21.10;1.00;;;;;;5134386;27;20200;-56
2021/07/18 01:46:48;;;;;;;5.93;4.63;;;21.00;1.00;;;;;;5130394;27;20939;-55
2021/07/18 01:49:14;;;;;;;7.70;4.00;;;21.00;1.00;;;;;;5134840;27;21013;-55
2021/07/18 01:51:40;;;;;;;6.67;3.73;;;20.90;1.00;;;;;;5131736;27;20213;-55
2021/07/18 01:54:08;;;;;;;12.60;4.57;;;20.90;1.00;;;;;;5140233;27;20851;-55
2021/07/18 01:56:34;;;;;;;9.30;4.70;;;20.90;1.00;;;;;;5134957;27;20819;-55
2021/07/18 01:58:59;;;;;;;5.60;3.80;;;20.90;1.00;;;;;;5128683;27;20442;-54
2021/07/18 02:01:27;;;;;;;8.17;4.20;;;20.90;1.00;;;;;;5133279;27;20274;-56
2021/07/18 02:03:54;;;;;;;9.80;4.70;;;23.60;1.00;;;;;;5135052;27;20195;-57
2021/07/18 02:06:22;;;;;;;5.97;4.43;;;20.80;1.00;;;;;;5133850;27;20423;-55
2021/07/18 02:08:49;;;;;;;7.43;4.13;;;20.80;1.00;;;;;;5133548;27;20420;-56
2021/07/18 02:11:16;;;;;;;9.40;3.83;;;20.90;1.00;;;;;;5133334;27;20441;-55
2021/07/18 02:13:43;;;;;;;10.93;4.60;;;21.00;1.00;;;;;;5127368;27;20445;-56
2021/07/18 02:16:08;;;;;;;5.97;4.17;;;21.00;1.00;;;;;;5133537;27;20430;-57
2021/07/18 02:18:34;;;;;;;6.63;4.50;;;20.90;1.00;;;;;;5134459;27;20442;-56
2021/07/18 02:20:59;;;;;;;5.13;4.03;;;20.90;1.00;;;;;;5130552;27;20206;-56
2021/07/18 02:23:25;;;;;;;5.87;4.43;;;20.70;1.00;;;;;;5136236;27;20181;-56
2021/07/18 02:25:51;;;;;;;8.17;4.23;;;20.80;1.00;;;;;;5133760;27;20627;-54
2021/07/18 02:28:17;;;;;;;5.63;3.63;;;20.70;1.00;;;;;;5130778;27;20221;-56
2021/07/18 02:30:44;;;;;;;6.07;4.20;;;20.70;1.00;;;;;;5134051;27;20423;-56
2021/07/18 02:33:10;;;;;;;10.10;4.30;;;20.60;1.00;;;;;;5127139;27;20471;-55
2021/07/18 02:35:35;;;;;;;6.53;4.30;;;20.60;1.00;;;;;;5133428;27;20459;-56
2021/07/18 02:38:01;;;;;;;7.50;4.47;;;20.70;1.00;;;;;;5133558;27;20270;-55
2021/07/18 02:40:27;;;;;;;5.10;3.70;;;20.60;1.00;;;;;;5138141;27;20639;-55
2021/07/18 02:42:54;;;;;;;8.27;4.10;;;20.70;1.00;;;;;;5134595;27;20177;-55
2021/07/18 02:45:23;;;;;;;6.00;3.93;;;20.70;1.00;;;;;;5133269;27;20447;-56
2021/07/18 02:47:49;;;;;;;6.73;4.00;;;20.60;1.00;;;;;;5129608;27;20443;-55
2021/07/18 02:50:17;;;;;;;7.97;3.87;;;20.60;1.00;;;;;;5112724;27;20455;-54
2021/07/18 02:52:43;;;;;;;8.60;4.20;;;20.70;1.00;;;;;;5115234;27;20454;-55
2021/07/18 02:55:10;;;;;;;5.53;4.60;;;20.70;1.00;;;;;;5113062;27;20490;-56
2021/07/18 02:57:35;;;;;;;8.50;4.17;;;20.80;1.00;;;;;;5131319;27;20446;-55
2021/07/18 03:00:05;;;;;;;6.43;3.90;;;20.80;1.00;;;;;;5134205;27;20765;-56
2021/07/18 03:02:30;;;;;;;8.33;4.80;;;20.70;1.00;;;;;;5109941;27;20261;-56
2021/07/18 03:04:56;;;;;;;5.20;4.07;;;20.60;1.00;;;;;;5130830;27;20887;-56
2021/07/18 03:07:21;;;;;;;8.33;4.10;;;20.60;1.00;;;;;;5130526;27;20192;-54
2021/07/18 03:09:47;;;;;;;10.80;4.83;;;20.60;1.00;;;;;;5133565;27;20189;-56
2021/07/18 03:12:12;;;;;;;8.47;4.47;;;20.60;1.00;;;;;;5131348;27;20195;-56
2021/07/18 03:14:38;;;;;;;7.33;3.90;;;20.50;1.00;;;;;;5125749;27;20526;-56
2021/07/18 03:17:04;;;;;;;8.90;4.67;;;20.40;1.00;;;;;;5133230;27;20177;-55
2021/07/18 03:19:29;;;;;;;4.40;3.80;;;20.50;1.00;;;;;;5132713;27;20213;-55
2021/07/18 03:21:55;;;;;;;9.40;4.30;;;20.50;1.00;;;;;;5123305;27;20944;-55
2021/07/18 03:24:20;;;;;;;5.73;4.00;;;20.50;1.00;;;;;;5113990;27;20185;-56
2021/07/18 03:26:46;;;;;;;7.17;4.47;;;20.40;1.00;;;;;;5131791;27;20613;-55
2021/07/18 03:29:12;;;;;;;6.07;3.50;;;20.30;1.00;;;;;;5133472;27;20680;-58
2021/07/18 03:31:37;;;;;;;7.90;3.43;;;20.30;1.00;;;;;;5132896;27;20193;-56
2021/07/18 03:34:03;;;;;;;6.60;3.73;;;20.30;1.00;;;;;;5130059;27;20210;-55
2021/07/18 03:36:28;;;;;;;17.50;4.53;;;20.40;1.00;;;;;;5131961;27;20812;-56
2021/07/18 03:38:54;;;;;;;9.37;4.70;;;20.40;1.00;;;;;;5133615;27;20185;-56
2021/07/18 03:41:20;;;;;;;8.70;3.93;;;20.40;1.00;;;;;;5132311;27;20189;-55
2021/07/18 03:43:47;;;;;;;5.40;3.67;;;20.40;1.00;;;;;;5133191;27;20197;-55
2021/07/18 03:46:13;;;;;;;5.30;4.13;;;20.30;1.00;;;;;;5128960;27;20447;-56
2021/07/18 03:48:39;;;;;;;8.30;4.10;;;20.40;1.00;;;;;;5130138;27;20590;-55
2021/07/18 03:51:04;;;;;;;7.03;3.67;;;20.40;1.00;;;;;;5130058;27;20229;-55
2021/07/18 03:53:30;;;;;;;10.20;4.00;;;20.40;1.00;;;;;;5127947;27;21049;-54
2021/07/18 03:55:55;;;;;;;8.73;4.00;;;20.50;1.00;;;;;;5132543;27;20183;-55
2021/07/18 03:58:21;;;;;;;7.10;4.07;;;20.40;1.00;;;;;;5129914;27;20665;-55
2021/07/18 04:00:46;;;;;;;6.27;3.60;;;20.50;1.00;;;;;;5131581;27;20186;-55
2021/07/18 04:03:12;;;;;;;12.43;5.10;;;20.30;1.00;;;;;;5131198;27;20193;-55
2021/07/18 04:05:37;;;;;;;9.93;3.60;;;20.30;1.00;;;;;;5128359;27;20210;-56
2021/07/18 04:08:03;;;;;;;7.20;3.83;;;20.30;1.00;;;;;;5132682;27;20658;-55
2021/07/18 04:10:29;;;;;;;13.23;4.20;;;20.30;1.00;;;;;;5132736;27;20181;-55
2021/07/18 04:12:56;;;;;;;4.70;3.57;;;20.20;1.00;;;;;;5131937;27;20185;-54
2021/07/18 04:15:22;;;;;;;6.37;3.90;;;20.20;1.00;;;;;;5132806;27;20169;-55
2021/07/18 04:17:47;;;;;;;10.90;4.20;;;20.10;1.00;;;;;;5130869;27;20492;-56
2021/07/18 04:20:13;;;;;;;5.80;3.67;;;20.10;1.00;;;;;;5131538;27;20241;-56
2021/07/18 04:22:39;;;;;;;7.90;3.73;;;20.10;1.00;;;;;;5127912;27;20193;-56
2021/07/18 04:25:05;;;;;;;31.17;5.00;;;20.00;1.00;;;;;;5131049;27;20921;-56
2021/07/18 04:27:31;;;;;;;8.03;4.17;;;20.00;1.00;;;;;;5127728;27;20274;-56
2021/07/18 04:29:56;;;;;;;8.83;4.27;;;20.10;1.00;;;;;;5131382;27;20505;-56
2021/07/18 04:32:22;;;;;;;4.77;3.77;;;20.10;1.00;;;;;;5131756;27;20215;-55
2021/07/18 04:34:48;;;;;;;6.73;3.90;;;;;;;;;;5149473;27;20268;-55
2021/07/18 04:37:13;;;;;;;7.70;4.20;;;20.00;1.00;;;;;;5127385;27;20178;-56
2021/07/18 04:39:40;;;;;;;7.47;4.03;;;20.10;1.00;;;;;;5128414;27;20446;-57
2021/07/18 04:42:06;;;;;;;5.60;4.47;;;20.10;1.00;;;;;;5131191;27;21369;-55
2021/07/18 04:44:32;;;;;;;6.03;4.10;;;20.00;1.00;;;;;;5132223;27;20511;-55
2021/07/18 04:46:58;;;;;;;7.00;4.00;;;20.10;1.00;;;;;;5130144;27;20413;-55
2021/07/18 04:49:25;;;;;;;11.70;4.53;;;20.10;1.00;;;;;;5126871;27;20446;-56
2021/07/18 04:51:52;;;;;;;6.17;3.80;;;20.10;1.00;;;;;;5130474;27;20842;-56
2021/07/18 04:54:18;;;;;;;7.73;4.30;;;20.20;1.00;;;;;;5131868;27;20458;-55
2021/07/18 04:56:44;;;;;;;4.27;3.50;;;20.30;1.00;;;;;;5130817;27;20435;-55
2021/07/18 04:59:10;;;;;;;7.20;3.80;;;20.50;1.00;;;;;;5128965;27;20177;-56
2021/07/18 05:01:36;;;;;;;5.47;3.27;;;20.40;1.00;;;;;;5127052;27;20796;-55
2021/07/18 05:04:01;;;;;;;8.97;4.50;;;20.50;1.00;;;;;;5131828;27;20224;-56
2021/07/18 05:06:27;;;;;;;8.90;4.40;;;20.70;1.00;;;;;;5130438;27;20642;-55
2021/07/18 05:08:53;;;;;;;4.47;3.60;;;20.60;1.00;;;;;;5129138;27;20185;-55
2021/07/18 05:11:19;;;;;;;7.67;4.60;;;20.60;1.00;;;;;;5115604;27;20188;-56
2021/07/18 05:13:50;;;;;;;4.90;3.83;;;20.60;1.00;;;;;;5131263;27;20205;-55
2021/07/18 05:16:16;;;;;;;15.13;5.07;;;20.70;1.00;;;;;;5131405;27;21006;-55
2021/07/18 05:18:41;;;;;;;6.27;3.97;;;20.70;1.00;;;;;;5111730;27;20471;-56
2021/07/18 05:21:07;;;;;;;5.57;3.90;;;20.90;1.00;;;;;;5148374;27;20204;-57
2021/07/18 05:23:33;;;;;;;6.37;4.27;;;21.00;1.00;;;;;;5128392;27;20177;-55
2021/07/18 05:25:58;;;;;;;6.90;3.80;;;21.10;1.00;;;;;;5127088;27;20208;-55
2021/07/18 05:28:24;;;;;;;5.47;4.37;;;21.00;1.00;;;;;;5131588;27;20409;-56
2021/07/18 05:30:49;;;;;;;10.63;4.30;;;21.00;1.00;;;;;;5124978;27;20661;-55
2021/07/18 05:33:15;;;;;;;9.63;3.80;;;21.10;1.00;;;;;;5128714;27;20241;-57
2021/07/18 05:35:41;;;;;;;9.70;5.03;;;21.10;1.00;;;;;;5130075;27;20715;-55
2021/07/18 05:38:06;;;;;;;9.20;4.07;;;21.20;1.00;;;;;;5127987;27;20230;-55
2021/07/18 05:40:33;;;;;;;6.80;3.63;;;21.20;1.00;;;;;;5129912;27;20173;-55
2021/07/18 05:42:58;;;;;;;6.63;3.83;;;21.20;1.00;;;;;;5130030;27;20278;-57
2021/07/18 05:45:24;;;;;;;9.27;4.20;;;21.10;1.00;;;;;;5129869;27;21021;-56
2021/07/18 05:47:49;;;;;;;8.87;3.80;;;20.90;1.00;;;;;;5131531;27;20256;-56
2021/07/18 05:50:15;;;;;;;5.70;3.90;;;20.90;1.00;;;;;;5125149;27;20185;-55
2021/07/18 05:52:40;;;;;;;8.17;4.50;;;20.80;1.00;;;;;;5130470;27;20238;-55
2021/07/18 05:55:07;;;;;;;8.47;4.60;;;20.80;1.00;;;;;;5130347;27;20685;-56
2021/07/18 05:57:33;;;;;;;5.10;4.10;;;20.90;1.00;;;;;;5128178;27;20178;-57
2021/07/18 05:59:59;;;;;;;7.33;4.73;;;21.00;1.00;;;;;;5126619;27;20902;-56
2021/07/18 06:02:25;;;;;;;9.60;4.10;;;21.00;1.00;;;;;;5127586;27;20435;-56
2021/07/18 06:04:50;;;;;;;7.90;4.33;;;21.10;1.00;;;;;;5131222;27;20182;-55
2021/07/18 06:07:16;;;;;;;5.77;3.77;;;21.10;1.00;;;;;;5128124;27;20188;-55
2021/07/18 06:09:41;;;;;;;8.10;3.40;;;21.20;1.00;;;;;;5127367;27;20516;-54
2021/07/18 06:12:07;;;;;;;6.93;3.60;;;21.50;1.00;;;;;;5129470;27;20189;-57
2021/07/18 06:14:33;;;;;;;5.43;4.37;;;21.70;1.00;;;;;;5130270;27;20209;-54
2021/07/18 06:16:59;;;;;;;5.40;3.73;;;21.70;1.00;;;;;;5130809;27;20402;-55
2021/07/18 06:19:24;;;;;;;6.00;3.93;;;21.60;1.00;;;;;;5125879;27;20165;-56
2021/07/18 06:21:50;;;;;;;11.50;4.47;;;21.70;1.00;;;;;;5133398;27;20426;-55
2021/07/18 06:24:16;;;;;;;6.83;4.07;;;21.70;1.00;;;;;;5133350;27;20178;-56
2021/07/18 06:26:41;;;;;;;4.90;3.90;;;21.70;1.00;;;;;;5130608;27;20235;-55
2021/07/18 06:29:07;;;;;;;8.40;4.10;;;21.70;1.00;;;;;;5131984;27;20181;-55
2021/07/18 06:31:33;;;;;;;7.70;4.07;;;21.90;1.00;;;;;;5131955;27;20187;-55
2021/07/18 06:33:58;;;;;;;6.20;4.47;;;22.00;1.00;;;;;;5115152;27;20214;-56
2021/07/18 06:36:24;;;;;;;5.47;4.10;;;22.00;1.00;;;;;;5133029;27;20398;-56
2021/07/18 06:38:49;;;;;;;5.20;4.17;;;22.00;1.00;;;;;;5129806;27;20224;-56
2021/07/18 06:41:15;;;;;;;5.40;3.87;;;21.90;1.00;;;;;;5133820;27;20267;-56
2021/07/18 06:43:40;;;;;;;9.17;4.47;;;21.90;1.00;;;;;;5134174;27;20211;-55
2021/07/18 06:46:06;;;;;;;6.00;4.00;;;22.10;1.00;;;;;;5133740;27;20193;-55
2021/07/18 06:48:31;;;;;;;6.70;4.03;;;22.10;1.00;;;;;;5133810;27;20219;-55
2021/07/18 06:50:57;;;;;;;6.83;4.43;;;22.10;1.00;;;;;;5130029;27;20696;-56
2021/07/18 06:53:23;;;;;;;5.33;4.03;;;22.10;1.00;;;;;;5130954;27;20198;-56
2021/07/18 06:55:50;;;;;;;7.50;4.53;;;21.90;1.00;;;;;;5133515;27;20617;-54
2021/07/18 06:58:15;;;;;;;3.83;3.40;;;21.90;1.00;;;;;;5130605;27;20429;-55
2021/07/18 07:00:41;;;;;;;6.03;3.50;;;22.00;1.00;;;;;;5129194;27;20442;-56
2021/07/18 07:03:06;;;;;;;6.30;4.27;;;22.10;1.00;;;;;;5130631;27;20173;-56
2021/07/18 07:05:32;;;;;;;4.20;3.57;;;22.00;1.00;;;;;;5133155;27;20199;-54
2021/07/18 07:07:57;;;;;;;5.67;3.97;;;21.90;1.00;;;;;;5128357;27;20706;-55
2021/07/18 07:10:23;;;;;;;6.70;3.40;;;22.00;1.00;;;;;;5129078;27;20214;-55
2021/07/18 07:12:49;;;;;;;6.27;4.43;;;22.30;1.00;;;;;;5131315;27;20296;-55
2021/07/18 07:15:15;;;;;;;7.37;4.33;;;22.50;1.00;;;;;;5130267;27;20199;-57
2021/07/18 07:17:41;;;;;;;4.90;4.23;;;22.70;1.00;;;;;;5120919;27;20193;-55
2021/07/18 07:20:08;;;;;;;7.57;4.10;;;22.60;1.00;;;;;;5131748;27;20467;-56
2021/07/18 07:22:35;;;;;;;6.67;4.10;;;22.90;1.00;;;;;;5132095;27;20585;-57
2021/07/18 07:25:03;;;;;;;6.40;4.10;;;23.00;1.00;;;;;;5131979;27;20953;-56
2021/07/18 07:27:28;;;;;;;7.80;3.50;;;22.70;1.00;;;;;;5131090;27;20486;-57
2021/07/18 07:29:54;;;;;;;6.90;4.57;;;22.40;1.00;;;;;;5133484;27;20947;-56
2021/07/18 07:32:19;;;;;;;7.27;4.27;;;22.60;1.00;;;;;;5130471;27;20213;-57
2021/07/18 07:34:45;;;;;;;5.93;3.40;;;22.80;1.00;;;;;;5132142;27;20201;-57
2021/07/18 07:37:10;;;;;;;6.53;3.03;;;23.00;1.00;;;;;;5131475;27;20227;-57
2021/07/18 07:39:37;;;;;;;4.37;3.53;;;23.20;1.00;;;;;;5144539;27;20180;-55
2021/07/18 07:42:03;;;;;;;6.33;3.90;;;23.40;1.00;;;;;;5132539;27;20227;-57
2021/07/18 07:44:28;;;;;;;5.40;3.40;;;23.40;1.00;;;;;;5129664;27;20981;-56
2021/07/18 07:46:54;;;;;;;6.33;3.73;;;23.60;1.00;;;;;;5131402;27;20177;-55
2021/07/18 07:49:19;;;;;;;8.80;4.27;;;23.60;1.00;;;;;;5132380;27;20191;-55
2021/07/18 07:51:45;;;;;;;5.13;3.47;;;23.50;1.00;;;;;;5128935;27;20248;-59
2021/07/18 07:54:10;;;;;;;4.00;3.60;;;23.60;1.00;;;;;;5129780;27;20226;-56
2021/07/18 07:56:36;;;;;;;8.73;4.13;;;23.70;1.00;;;;;;5132303;27;20185;-57
2021/07/18 07:59:01;;;;;;;5.43;3.67;;;23.40;1.00;;;;;;5131865;27;20649;-56
2021/07/18 08:01:27;;;;;;;8.40;4.30;;;23.10;1.00;;;;;;5131829;27;20181;-57
2021/07/18 08:03:53;;;;;;;5.40;3.27;;;23.00;1.00;;;;;;5132237;27;20214;-56
2021/07/18 08:06:19;;;;;;;4.10;3.33;;;23.30;1.00;;;;;;5128421;27;20429;-56
2021/07/18 08:08:44;;;;;;;5.30;3.60;;;23.50;1.00;;;;;;5131444;27;20669;-56
2021/07/18 08:11:10;;;;;;;5.30;3.43;;;23.50;1.00;;;;;;5110941;27;20741;-57
2021/07/18 08:13:40;;;;;;;5.60;4.00;;;23.80;1.00;;;;;;5132072;27;20300;-58
2021/07/18 08:16:06;;;;;;;6.57;3.67;;;23.90;1.00;;;;;;5130411;27;20181;-56
2021/07/18 08:18:32;;;;;;;5.30;3.40;;;24.00;1.00;;;;;;5132920;27;20425;-56
2021/07/18 08:20:57;;;;;;;6.77;3.90;;;24.20;1.00;;;;;;5127793;27;20661;-56
2021/07/18 08:23:23;;;;;;;6.97;4.17;;;24.20;1.00;;;;;;5128907;27;20246;-56
2021/07/18 08:25:48;;;;;;;5.13;3.50;;;24.10;1.00;;;;;;5146092;27;20698;-56
2021/07/18 08:28:14;;;;;;;10.30;4.20;;;24.00;1.00;;;;;;5148393;27;20205;-56
2021/07/18 08:30:42;;;;;;;7.73;4.40;;;23.90;1.00;;;;;;5110154;27;20201;-56
2021/07/18 08:33:07;;;;;;;9.47;3.90;;;23.90;1.00;;;;;;5129651;27;20231;-56
2021/07/18 08:35:33;;;;;;;6.40;4.00;;;24.10;1.00;;;;;;5109173;27;20448;-58
2021/07/18 08:37:59;;;;;;;7.20;3.70;;;24.30;1.00;;;;;;5128308;27;20193;-57
2021/07/18 08:40:24;;;;;;;3.93;3.10;;;24.30;1.00;;;;;;5130299;27;20244;-57
2021/07/18 08:42:51;;;;;;;12.77;5.23;;;24.90;1.00;;;;;;5131345;27;20543;-57
2021/07/18 08:45:16;;;;;;;7.40;3.30;;;24.50;1.00;;;;;;5111541;27;20651;-58
2021/07/18 08:47:42;;;;;;;6.33;3.27;;;24.90;1.00;;;;;;5127765;27;20451;-56
2021/07/18 08:50:09;;;;;;;4.13;3.50;;;25.10;1.00;;;;;;5131603;27;20197;-57
2021/07/18 08:52:36;;;;;;;6.70;3.57;;;25.00;1.00;;;;;;5128542;27;20220;-57
2021/07/18 08:55:02;;;;;;;4.80;3.10;;;24.90;1.00;;;;;;5127835;27;20444;-58
2021/07/18 08:57:28;;;;;;;5.60;2.87;;;22.10;1.00;;;;;;5136942;27;20754;-56
2021/07/18 08:59:54;;;;;;;5.50;2.70;;;25.60;1.00;;;;;;5128799;27;20409;-56
2021/07/18 09:02:20;;;;;;;7.97;3.00;;;25.30;1.00;;;;;;5130900;27;20441;-57
2021/07/18 09:04:46;;;;;;;3.67;2.80;;;25.20;1.00;;;;;;5131206;27;20264;-57
2021/07/18 09:07:17;;;;;;;4.80;2.33;;;25.10;1.00;;;;;;5124890;27;20883;-56
2021/07/18 09:09:44;;;;;;;3.97;2.20;;;25.00;1.00;;;;;;5127284;27;20181;-57
2021/07/18 09:12:10;;;;;;;4.93;2.50;;;25.30;1.00;;;;;;5148495;27;20486;-56
2021/07/18 09:14:39;;;;;;;2.30;2.10;;;25.50;1.00;;;;;;5149229;27;20431;-55
2021/07/18 09:17:09;;;;;;;3.17;2.57;;;25.70;1.00;;;;;;5142192;27;20401;-56
2021/07/18 09:19:36;;;;;;;3.20;2.10;;;25.80;1.00;;;;;;5130628;27;20447;-57
2021/07/18 09:22:05;;;;;;;3.27;2.27;;;25.60;1.00;;;;;;5133528;27;20820;-56
2021/07/18 09:24:35;;;;;;;7.33;2.50;;;25.60;1.00;;;;;;5123598;27;20439;-55
2021/07/18 09:27:06;;;;;;;4.47;2.50;;;26.00;1.00;;;;;;5125521;27;20571;-55
2021/07/18 09:29:32;;;;;;;4.00;2.80;;;26.00;1.00;;;;;;5129776;27;20440;-55
2021/07/18 09:32:06;;;;;;;3.10;2.57;;;25.60;1.00;;;;;;5140120;27;20495;-55
2021/07/18 09:34:38;;;;;;;3.30;2.20;;;25.60;1.00;;;;;;5131404;27;20437;-56
2021/07/18 09:37:05;;;;;;;6.53;3.30;;;26.20;1.00;;;;;;5130459;27;21698;-56
2021/07/18 09:39:31;;;;;;;4.77;2.83;;;26.30;1.00;;;;;;5113184;28;20562;-55
2021/07/18 09:41:57;;;;;;;8.07;3.00;;;26.10;1.00;;;;;;5129841;27;20522;-56
2021/07/18 09:44:23;;;;;;;4.53;2.90;;;25.60;1.00;;;;;;5113536;28;20169;-57
2021/07/18 09:46:49;;;;;;;6.60;3.50;;;25.20;1.00;;;;;;5130443;27;20405;-56
2021/07/18 09:49:34;;;;;;;3.73;2.87;;;25.40;1.00;;;;;;5131297;27;20797;-55
2021/07/18 09:52:19;;;;;;;8.17;2.40;;;25.70;1.00;;;;;;5131845;28;20441;-57
2021/07/18 09:54:47;;;;;;;3.30;2.97;;;25.80;1.00;;;;;;5129714;27;20458;-54
2021/07/18 09:57:34;;;;;;;4.30;2.37;;;25.70;1.00;;;;;;5131088;27;20450;-58
2021/07/18 10:00:01;;;;;;;3.40;2.13;;;26.00;1.00;;;;;;5101141;27;20807;-56
2021/07/18 10:02:27;;;;;;;5.00;2.30;;;26.00;1.00;;;;;;5135845;27;20406;-55
2021/07/18 10:04:54;;;;;;;3.87;2.83;;;25.70;1.00;;;;;;5133304;27;20447;-57
2021/07/18 10:07:22;;;;;;;4.70;3.27;;;25.60;1.00;;;;;;5133763;27;20517;-56
2021/07/18 10:09:49;;;;;;;5.40;3.20;;;26.20;1.00;;;;;;5134413;27;20452;-56
2021/07/18 10:12:15;;;;;;;5.20;2.50;;;26.40;1.00;;;;;;5135303;27;20463;-55
2021/07/18 10:14:42;;;;;;;2.60;2.40;;;25.80;1.00;;;;;;5134702;27;20546;-57
2021/07/18 10:17:08;;;;;;;5.27;2.50;;;25.60;1.00;;;;;;5135010;27;20224;-56
2021/07/18 10:19:34;;;;;;;6.10;2.60;;;25.90;1.00;;;;;;5116829;27;21011;-56
2021/07/18 10:22:00;;;;;;;4.27;3.30;;;26.40;1.00;;;;;;5134810;27;20413;-55
2021/07/18 10:24:27;;;;;;;3.93;3.17;;;26.20;1.00;;;;;;5128871;27;20482;-57
2021/07/18 10:26:52;;;;;;;3.70;2.80;;;26.00;1.00;;;;;;5134698;27;20966;-55
2021/07/18 10:29:18;;;;;;;3.40;2.30;;;26.00;1.00;;;;;;5134601;27;20500;-56
2021/07/18 10:31:51;;;;;;;5.70;2.30;;;25.90;1.00;;;;;;5129969;27;20208;-57
2021/07/18 10:34:19;;;;;;;3.33;2.77;;;26.30;1.00;;;;;;5137105;27;20286;-55
2021/07/18 10:36:45;;;;;;;5.67;3.23;;;26.60;1.00;;;;;;5132879;27;20430;-56
2021/07/18 10:39:29;;;;;;;4.17;2.73;;;26.80;1.00;;;;;;5133649;27;20773;-56
2021/07/18 10:41:56;;;;;;;5.30;3.00;;;26.70;1.00;;;;;;5126113;27;20416;-56
2021/07/18 10:44:22;;;;;;;2.90;2.70;;;26.50;1.00;;;;;;5135683;27;20432;-55
2021/07/18 10:46:53;;;;;;;3.07;2.77;;;26.50;1.00;;;;;;5139456;27;20555;-56
2021/07/18 10:49:53;;;;;;;4.57;2.80;;;26.50;1.00;;;;;;5128954;27;20638;-57
2021/07/18 10:52:21;;;;;;;6.70;2.93;;;26.50;1.00;;;;;;5130936;27;20525;-57
2021/07/18 10:54:47;;;;;;;4.70;2.90;;;26.70;1.00;;;;;;5131860;27;21250;-55
2021/07/18 10:57:32;;;;;;;4.40;2.73;;;27.00;1.00;;;;;;5131836;27;20431;-57
2021/07/18 11:00:16;;;;;;;3.20;2.77;;;27.10;1.00;;;;;;5133417;27;20166;-57
2021/07/18 11:02:42;;;;;;;4.70;2.47;;;27.20;1.00;;;;;;5131626;27;20446;-57
2021/07/18 11:05:13;;;;;;;5.33;2.93;;;27.40;1.00;;;;;;5115239;27;20417;-55
2021/07/18 11:07:39;;;;;;;3.70;2.67;;;27.70;1.00;;;;;;5133621;27;20200;-56
2021/07/18 11:10:14;;;;;;;5.00;3.33;;;27.70;1.00;;;;;;5133386;27;20474;-57
2021/07/18 11:12:49;;;;;;;3.10;2.80;;;27.50;1.00;;;;;;5133847;27;20568;-56
2021/07/18 11:15:31;;;;;;;3.60;3.10;;;27.00;1.00;;;;;;5133799;27;20433;-55
2021/07/18 11:18:31;;;;;;;4.93;3.27;;;27.10;1.00;;;;;;5131719;27;20406;-55
2021/07/18 11:20:57;;;;;;;3.50;3.20;;;27.20;1.00;;;;;;5140695;27;20421;-55
2021/07/18 11:23:46;;;;;;;3.13;2.83;;;26.80;1.00;;;;;;5144718;27;20417;-55
2021/07/18 11:26:16;;;;;;;3.70;3.40;;;26.80;1.00;;;;;;5131446;27;20637;-56
2021/07/18 11:31:12;;;;;;;3.37;3.07;;;27.60;1.00;;;;;;5128842;27;20451;-54
2021/07/18 11:33:40;;;;;;;4.27;2.43;;;27.50;1.00;;;;;;5129531;27;20436;-55
2021/07/18 11:36:07;;;;;;;6.47;3.20;;;27.30;1.00;;;;;;5130925;27;20185;-55
2021/07/18 11:38:33;;;;;;;7.30;3.30;;;27.10;1.00;;;;;;5127247;27;20436;-54
2021/07/18 11:40:59;;;;;;;3.13;2.53;;;27.10;1.00;;;;;;5127849;27;20421;-55
2021/07/18 11:43:24;;;;;;;2.73;2.53;;;27.30;1.00;;;;;;5134154;27;20910;-56
2021/07/18 11:45:53;;;;;;;3.60;2.40;;;27.60;1.00;;;;;;5135885;27;20176;-55
2021/07/18 11:48:22;;;;;;;3.37;2.80;;;27.70;1.00;;;;;;5137428;27;20185;-57
2021/07/18 11:50:48;;;;;;;2.83;2.53;;;27.60;1.00;;;;;;5126776;27;20532;-54
2021/07/18 11:53:17;;;;;;;3.00;2.70;;;27.40;1.00;;;;;;5128181;27;20939;-54
2021/07/18 11:55:43;;;;;;;3.10;2.80;;;27.40;1.00;;;;;;5133205;27;20441;-55
2021/07/18 11:58:08;;;;;;;3.50;2.40;;;27.40;1.00;;;;;;5112322;27;20998;-56
2021/07/18 12:00:34;;;;;;;7.57;3.23;;;27.30;1.00;;;;;;5130023;27;20314;-55
2021/07/18 12:03:01;;;;;;;2.83;2.63;;;27.40;1.00;;;;;;5131089;27;20186;-55
2021/07/18 12:05:27;;;;;;;4.07;3.00;;;27.50;1.00;;;;;;5132251;27;20205;-54
2021/07/18 12:08:05;;;;;;;2.90;2.63;;;27.70;1.00;;;;;;5132490;27;20413;-56
2021/07/18 12:10:30;;;;;;;2.60;2.27;;;27.70;1.00;;;;;;5114655;27;20810;-57
2021/07/18 12:12:56;;;;;;;4.17;3.00;;;27.70;1.00;;;;;;5130099;27;21218;-54
2021/07/18 12:15:22;;;;;;;2.87;2.50;;;28.10;1.00;;;;;;5132203;27;20199;-55
2021/07/18 12:17:59;;;;;;;2.50;2.30;;;28.00;1.00;;;;;;5131141;27;20185;-55
2021/07/18 12:20:25;;;;;;;4.50;2.40;;;28.10;1.00;;;;;;5131933;27;20508;-55
2021/07/18 12:22:50;;;;;;;3.70;2.37;;;28.10;1.00;;;;;;5112339;27;20492;-54
2021/07/18 12:25:19;;;;;;;4.37;2.20;;;28.10;1.00;;;;;;5132811;27;20185;-55
2021/07/18 12:27:45;;;;;;;3.20;2.60;;;28.20;1.00;;;;;;5128528;27;20234;-55
2021/07/18 12:30:11;;;;;;;3.50;2.47;;;28.50;1.00;;;;;;5131851;27;20421;-58
2021/07/18 12:32:36;;;;;;;3.03;2.70;;;28.40;1.00;;;;;;5150930;27;20424;-57
2021/07/18 12:35:04;;;;;;;6.20;2.93;;;28.50;1.00;;;;;;5153115;27;20212;-55
2021/07/18 12:37:35;;;;;;;4.80;2.40;;;28.10;1.00;;;;;;5132124;27;20189;-56
2021/07/18 12:40:04;;;;;;;3.10;2.80;;;28.10;1.00;;;;;;5132170;27;20463;-56
2021/07/18 12:42:39;;;;;;;3.40;2.30;;;28.20;1.00;;;;;;5132248;27;20431;-57
2021/07/18 12:45:14;;;;;;;3.73;2.53;;;28.40;1.00;;;;;;5132083;27;20479;-54
2021/07/18 12:48:10;;;;;;;4.67;2.43;;;28.60;1.00;;;;;;5132270;27;20491;-58
2021/07/18 12:50:38;;;;;;;4.20;2.60;;;28.70;1.00;;;;;;5128716;27;20439;-57
2021/07/18 12:53:06;;;;;;;3.43;2.10;;;28.80;1.00;;;;;;5132174;27;20441;-55
2021/07/18 12:55:36;;;;;;;2.90;2.50;;;29.10;1.00;;;;;;5131551;27;20410;-55
2021/07/18 12:58:15;;;;;;;4.07;3.33;;;29.50;1.00;;;;;;5131713;27;20942;-56